Time;durP1;ratioP1;P1;durP2;ratioP2;P2;SDS_P1;SDS_P2;PMS_P1;PMS_P2;Temp;Humidity;BMP_temperature;BMP_pressure;BME280_temperature;BME280_humidity;BME280_pressure;Samples;Min_cycle;Max_cycle;Signal;HPM_P1;HPM_P2
2023/08/14 00:00:55;;;;;;;9.23;2.23;;;;;;;19.27;63.85;101006.09;4998892;28;20324;-57
2023/08/14 00:03:25;;;;;;;6.17;2.10;;;;;;;19.28;64.82;101007.81;5008554;28;20284;-57
2023/08/14 00:05:57;;;;;;;6.67;1.97;;;;;;;19.29;63.44;101009.53;4998233;28;20292;-57
2023/08/14 00:08:28;;;;;;;7.67;2.40;;;;;;;19.33;64.79;101008.47;5008315;28;20292;-56
2023/08/14 00:10:59;;;;;;;9.07;2.00;;;;;;;19.32;64.20;101009.41;4997929;28;20375;-58
2023/08/14 00:13:30;;;;;;;5.57;2.27;;;;;;;19.25;65.77;101001.78;5008972;28;20588;-57
2023/08/14 00:16:01;;;;;;;5.23;1.90;;;;;;;19.39;65.01;101010.00;4998619;28;20302;-57
2023/08/14 00:18:31;;;;;;;5.47;1.60;;;;;;;19.34;64.33;101004.88;5008090;28;20288;-56
2023/08/14 00:21:03;;;;;;;5.67;1.70;;;;;;;19.24;64.04;101006.19;4998699;28;20377;-56
2023/08/14 00:23:34;;;;;;;6.53;1.93;;;;;;;19.23;63.27;101004.47;5008339;28;20379;-55
2023/08/14 00:26:04;;;;;;;5.10;1.90;;;;;;;19.12;65.30;101006.69;4988497;28;20368;-55
2023/08/14 00:28:35;;;;;;;6.13;1.50;;;;;;;19.08;65.17;101005.97;4988829;28;20348;-56
2023/08/14 00:31:06;;;;;;;5.50;1.80;;;;;;;19.20;65.07;101009.06;4979743;28;20385;-57
2023/08/14 00:33:36;;;;;;;8.00;1.70;;;;;;;19.26;63.39;101008.78;4988929;28;20292;-56
2023/08/14 00:36:08;;;;;;;5.20;1.70;;;;;;;19.20;63.72;101003.75;4979823;28;20331;-57
2023/08/14 00:38:39;;;;;;;5.70;1.90;;;;;;;19.27;64.12;101005.22;5008129;28;20291;-57
2023/08/14 00:41:10;;;;;;;6.37;1.40;;;;;;;19.41;64.19;101002.88;4998605;28;20371;-56
2023/08/14 00:43:40;;;;;;;5.20;1.73;;;;;;;19.36;62.85;101013.66;5007685;28;20295;-55
2023/08/14 00:46:11;;;;;;;4.73;1.33;;;;;;;19.44;63.70;101004.53;4979361;28;20312;-57
2023/08/14 00:48:42;;;;;;;10.33;1.90;;;;;;;19.51;63.07;100995.41;4988172;28;20319;-56
2023/08/14 00:51:15;;;;;;;7.60;1.40;;;;;;;19.53;62.70;100997.06;4978857;28;20796;-55
2023/08/14 00:53:45;;;;;;;4.97;1.30;;;;;;;19.62;62.53;101001.13;4988439;28;20327;-56
2023/08/14 00:56:17;;;;;;;6.50;1.53;;;;;;;19.60;63.11;100995.03;4982955;28;20375;-55
2023/08/14 00:58:48;;;;;;;7.67;1.77;;;;;;;19.56;63.20;100985.47;5007537;28;20794;-56
2023/08/14 01:01:20;;;;;;;5.13;1.47;;;;;;;19.53;61.81;100980.28;5026966;28;20288;-56
2023/08/14 01:03:51;;;;;;;4.53;1.23;;;;;;;19.66;61.37;100991.25;5026758;28;20287;-58
2023/08/14 01:06:23;;;;;;;5.43;1.70;;;;;;;19.63;62.22;100992.22;5016964;28;20283;-58
2023/08/14 01:08:54;;;;;;;5.60;1.37;;;;;;;19.58;61.36;100994.22;5017010;28;20370;-58
2023/08/14 01:11:35;;;;;;;4.50;1.33;;;;;;;19.65;61.32;100998.34;5026927;28;20746;-57
2023/08/14 01:14:12;;;;;;;6.97;1.57;;;;;;;19.87;62.17;100989.47;5016978;28;20294;-56
2023/08/14 01:16:49;;;;;;;8.03;1.60;;;;;;;20.02;60.86;100988.81;5026786;28;20284;-56
2023/08/14 01:19:23;;;;;;;5.27;2.17;;;;;;;20.10;60.65;100986.69;5017295;28;20333;-57
2023/08/14 01:22:05;;;;;;;6.63;2.77;;;;;;;20.23;58.66;100987.84;5008628;28;20294;-56
2023/08/14 01:24:54;;;;;;;6.93;2.40;;;;;;;20.18;58.49;100979.22;5006669;28;20288;-56
2023/08/14 01:27:26;;;;;;;7.57;1.98;;;;;;;20.18;58.88;100989.84;4997356;28;20311;-57
2023/08/14 01:29:58;;;;;;;8.27;2.60;;;;;;;20.19;59.69;100985.41;4997284;28;20529;-58
2023/08/14 01:32:30;;;;;;;7.90;3.20;;;;;;;20.22;57.96;100991.44;5008915;28;20379;-56
2023/08/14 01:35:01;;;;;;;8.60;2.30;;;;;;;20.18;58.60;100995.16;5016547;28;20304;-57
2023/08/14 01:37:42;;;;;;;8.03;3.20;;;;;;;20.22;59.22;101002.06;5027099;28;20291;-57
2023/08/14 01:40:18;;;;;;;8.77;2.40;;;;;;;20.45;59.04;100997.50;5012437;28;20281;-56
2023/08/14 01:42:58;;;;;;;10.10;3.80;;;;;;;20.58;58.30;100982.75;5006821;28;20374;-56
2023/08/14 01:45:33;;;;;;;11.73;4.40;;;;;;;20.50;57.57;100945.06;4995210;28;20280;-56
2023/08/14 01:48:08;;;;;;;11.13;5.10;;;;;;;20.88;56.95;100984.91;4997686;28;20272;-57
2023/08/14 01:50:40;;;;;;;11.43;4.47;;;;;;;20.90;55.80;100986.53;5006676;28;20316;-58
2023/08/14 01:53:11;;;;;;;12.10;4.50;;;;;;;20.79;54.50;100977.34;4996529;28;20294;-57
2023/08/14 01:55:41;;;;;;;13.33;5.27;;;;;;;20.86;56.87;100979.66;5006342;28;20351;-57
2023/08/14 01:58:13;;;;;;;12.87;6.77;;;;;;;20.93;57.45;100982.88;4996924;28;20338;-56
2023/08/14 02:00:44;;;;;;;17.97;7.10;;;;;;;20.95;56.50;100981.00;5006073;28;20754;-59
2023/08/14 02:03:15;;;;;;;15.83;7.10;;;;;;;21.15;57.35;100992.47;4996914;28;20847;-56
2023/08/14 02:05:45;;;;;;;16.30;8.33;;;;;;;21.25;56.80;100999.06;5006061;28;20360;-56
2023/08/14 02:08:16;;;;;;;14.97;8.23;;;;;;;21.24;55.88;101002.63;4996728;28;20598;-59
2023/08/14 02:10:47;;;;;;;17.07;8.97;;;;;;;21.19;56.22;100994.03;5005876;28;20283;-56
2023/08/14 02:13:19;;;;;;;16.57;10.80;;;;;;;21.25;56.48;100988.44;4996720;28;20280;-58
2023/08/14 02:15:50;;;;;;;20.40;9.90;;;;;;;21.10;54.94;100977.59;5006562;28;20312;-58
2023/08/14 02:18:20;;;;;;;18.83;11.40;;;;;;;21.01;55.98;100994.00;4995810;28;20646;-56
2023/08/14 02:20:51;;;;;;;20.57;11.43;;;;;;;21.02;57.61;100974.47;5005514;28;20379;-58
2023/08/14 02:23:22;;;;;;;18.00;10.93;;;;;;;21.21;56.85;100977.06;4995105;28;20311;-61
2023/08/14 02:25:56;;;;;;;30.00;13.43;;;;;;;21.31;56.97;100977.47;5004763;28;20364;-58
2023/08/14 02:28:28;;;;;;;22.97;12.87;;;;;;;21.19;55.22;100972.78;5025790;28;20340;-56
2023/08/14 02:30:59;;;;;;;25.77;13.30;;;;;;;21.11;56.44;100971.34;4995988;28;20312;-57
2023/08/14 02:33:29;;;;;;;23.73;13.60;;;;;;;21.04;56.23;100969.94;5005925;28;20377;-56
2023/08/14 02:36:00;;;;;;;20.03;9.73;;;;;;;20.87;55.99;100961.94;4995358;28;20379;-57
2023/08/14 02:38:31;;;;;;;18.80;10.17;;;;;;;20.81;57.39;100946.28;5005478;28;20585;-57
2023/08/14 02:41:04;;;;;;;21.17;11.50;;;;;;;20.57;56.34;100917.31;5005588;28;20428;-58
2023/08/14 02:43:36;;;;;;;18.17;9.90;;;;;;;20.75;57.36;100951.91;5006197;28;20284;-57
2023/08/14 02:46:06;;;;;;;19.87;10.00;;;;;;;20.80;56.94;100960.50;4996478;28;20284;-56
2023/08/14 02:48:37;;;;;;;20.83;10.13;;;;;;;20.77;57.23;100936.75;5005475;28;20311;-57
2023/08/14 02:51:07;;;;;;;17.40;9.37;;;;;;;20.96;59.28;100952.66;4995198;28;20268;-57
2023/08/14 02:53:38;;;;;;;15.33;8.30;;;;;;;21.03;55.87;100957.59;5011446;28;20312;-58
2023/08/14 02:56:08;;;;;;;17.90;8.00;;;;;;;20.97;55.83;100947.28;5007586;28;20831;-60
2023/08/14 02:58:41;;;;;;;16.80;6.43;;;;;;;21.03;57.28;100954.06;5020763;28;20359;-58
2023/08/14 03:01:11;;;;;;;12.60;6.43;;;;;;;21.09;58.13;100949.31;5012818;28;20287;-57
2023/08/14 03:03:42;;;;;;;14.30;5.57;;;;;;;21.15;57.62;100939.34;5019062;28;20319;-58
2023/08/14 03:06:12;;;;;;;10.33;4.23;;;;;;;21.30;56.64;100957.16;5010758;28;20387;-59
2023/08/14 03:08:43;;;;;;;8.90;4.60;;;;;;;21.03;56.74;100941.63;5020135;28;20313;-58
2023/08/14 03:11:13;;;;;;;9.37;4.33;;;;;;;21.02;56.60;100933.78;5009095;28;20314;-58
2023/08/14 03:13:45;;;;;;;7.93;3.10;;;;;;;21.14;55.26;100927.81;5019858;28;20279;-58
2023/08/14 03:16:16;;;;;;;7.20;3.57;;;;;;;21.02;56.05;100918.69;5010637;28;20809;-58
2023/08/14 03:18:47;;;;;;;7.70;3.10;;;;;;;21.02;56.59;100931.97;5019931;28;20283;-58
2023/08/14 03:21:17;;;;;;;5.17;2.43;;;;;;;21.03;55.86;100931.00;5010463;28;20333;-58
2023/08/14 03:23:50;;;;;;;5.73;2.33;;;;;;;21.01;55.40;100927.56;5020471;28;20271;-59
2023/08/14 03:26:23;;;;;;;5.63;2.20;;;;;;;20.94;55.79;100931.47;5010329;28;20274;-59
2023/08/14 03:28:55;;;;;;;6.33;1.93;;;;;;;20.98;57.10;100925.06;5010421;28;20331;-57
2023/08/14 03:31:27;;;;;;;8.80;2.57;;;;;;;21.16;57.31;100925.09;5020779;28;20287;-56
2023/08/14 03:33:57;;;;;;;5.47;2.40;;;;;;;21.35;56.97;100931.22;5013700;28;20574;-57
2023/08/14 03:36:27;;;;;;;6.03;1.90;;;;;;;21.27;55.96;100928.94;5023901;28;21019;-58
2023/08/14 03:38:58;;;;;;;4.57;1.60;;;;;;;21.26;54.77;100926.34;5014280;28;20758;-59
2023/08/14 03:41:29;;;;;;;5.40;2.10;;;;;;;21.20;56.14;100916.03;5024346;28;20318;-57
2023/08/14 03:44:01;;;;;;;5.90;1.80;;;;;;;21.29;56.46;100926.19;5014308;28;20353;-59
2023/08/14 03:46:32;;;;;;;3.63;1.70;;;;;;;21.33;55.07;100933.09;5024775;28;20402;-58
2023/08/14 03:49:04;;;;;;;6.03;2.00;;;;;;;21.34;54.71;100921.50;4994998;28;20299;-58
2023/08/14 03:51:34;;;;;;;9.47;2.30;;;;;;;21.45;56.59;100932.50;5004598;28;20302;-59
2023/08/14 03:54:05;;;;;;;7.00;1.50;;;;;;;21.53;55.14;100932.09;5012145;28;20279;-59
2023/08/14 03:56:35;;;;;;;5.57;1.43;;;;;;;21.67;55.67;100926.09;5023709;28;20426;-58
2023/08/14 03:59:08;;;;;;;5.87;1.83;;;;;;;21.71;55.25;100923.16;5014613;28;20279;-59
2023/08/14 04:01:39;;;;;;;4.70;1.70;;;;;;;21.62;53.69;100923.66;5024429;28;20362;-58
2023/08/14 04:04:10;;;;;;;9.60;2.10;;;;;;;21.46;54.65;100923.56;5014600;28;20291;-58
2023/08/14 04:06:42;;;;;;;6.20;1.93;;;;;;;21.27;55.40;100918.31;5023548;28;20294;-58
2023/08/14 04:09:12;;;;;;;7.10;1.83;;;;;;;21.18;56.26;100923.22;5014557;28;20818;-58
2023/08/14 04:11:43;;;;;;;3.90;1.93;;;;;;;21.10;55.32;100913.84;5023642;28;20384;-58
2023/08/14 04:14:15;;;;;;;5.23;2.07;;;;;;;20.95;56.63;100874.75;5013751;28;20309;-58
2023/08/14 04:16:46;;;;;;;4.80;1.80;;;;;;;21.36;57.00;100916.97;5024197;28;20305;-58
2023/08/14 04:19:19;;;;;;;9.17;2.13;;;;;;;21.43;54.82;100918.41;5013989;28;20382;-59
2023/08/14 04:21:49;;;;;;;5.13;2.00;;;;;;;21.34;56.51;100881.63;5023136;28;20366;-58
2023/08/14 04:24:20;;;;;;;7.33;2.20;;;;;;;21.58;55.69;100910.59;5013525;28;20760;-58
2023/08/14 04:26:50;;;;;;;7.43;2.37;;;;;;;21.71;56.55;100901.88;5023309;28;20284;-59
2023/08/14 04:29:22;;;;;;;7.43;2.50;;;;;;;21.90;56.08;100901.78;5000728;28;20053;-58
2023/08/14 04:31:53;;;;;;;11.00;2.20;;;;;;;21.96;53.88;100901.44;5012425;28;20305;-58
2023/08/14 04:34:24;;;;;;;7.03;2.47;;;;;;;21.86;54.20;100902.88;5024118;28;20370;-56
2023/08/14 04:36:54;;;;;;;7.47;2.47;;;;;;;21.61;52.91;100894.47;5013959;28;20230;-59
2023/08/14 04:39:25;;;;;;;6.57;2.50;;;;;;;21.42;54.00;100898.09;5023734;28;20372;-57
2023/08/14 04:41:55;;;;;;;6.97;2.30;;;;;;;21.52;53.71;100901.13;5013424;28;20045;-60
2023/08/14 04:44:28;;;;;;;6.87;2.43;;;;;;;21.74;56.02;100895.53;5022598;28;20745;-58
2023/08/14 04:46:58;;;;;;;5.30;2.20;;;;;;;21.88;56.43;100879.69;5013045;28;20387;-58
2023/08/14 04:49:30;;;;;;;7.90;2.93;;;;;;;21.96;53.74;100890.78;5024057;28;20299;-58
2023/08/14 04:52:00;;;;;;;4.80;2.10;;;;;;;22.07;55.08;100876.91;5013495;28;20380;-58
2023/08/14 04:54:31;;;;;;;7.90;2.90;;;;;;;22.12;55.57;100882.84;5022340;28;20399;-58
2023/08/14 04:57:03;;;;;;;5.57;2.30;;;;;;;22.01;53.08;100871.06;5013324;28;20203;-59
2023/08/14 04:59:35;;;;;;;6.77;2.80;;;;;;;22.04;53.83;100877.09;5023014;28;20462;-59
2023/08/14 05:02:06;;;;;;;6.80;3.73;;;;;;;22.09;54.24;100874.16;5013088;28;20362;-58
2023/08/14 05:04:37;;;;;;;6.03;3.07;;;;;;;22.07;54.22;100870.75;5023680;28;20048;-57
2023/08/14 05:07:08;;;;;;;8.77;3.20;;;;;;;22.04;54.90;100846.94;5014178;28;20318;-58
2023/08/14 05:09:38;;;;;;;8.27;3.43;;;;;;;22.17;54.94;100861.31;5023701;28;20817;-58
2023/08/14 05:12:09;;;;;;;9.73;3.67;;;;;;;22.15;53.16;100857.88;5013056;28;20083;-57
2023/08/14 05:14:41;;;;;;;8.67;4.10;;;;;;;22.07;52.99;100854.78;5023094;28;20499;-57
2023/08/14 05:17:12;;;;;;;10.47;4.13;;;;;;;21.86;51.87;100852.31;5013332;28;20057;-57
2023/08/14 05:19:43;;;;;;;8.70;3.60;;;;;;;21.89;54.51;100867.25;5022484;28;20781;-58
2023/08/14 05:22:13;;;;;;;6.90;4.00;;;;;;;21.97;54.29;100849.94;5013436;28;20205;-58
2023/08/14 05:24:44;;;;;;;8.10;4.53;;;;;;;21.84;52.96;100832.06;5022214;28;20072;-58
2023/08/14 05:27:15;;;;;;;9.27;4.60;;;;;;;22.03;54.98;100853.22;5013509;28;20122;-58
2023/08/14 05:29:48;;;;;;;11.53;5.53;;;;;;;22.03;54.65;100853.22;5022757;28;20348;-59
2023/08/14 05:32:19;;;;;;;12.10;5.30;;;;;;;22.02;54.88;100840.88;5012377;28;20688;-58
2023/08/14 05:34:49;;;;;;;10.87;5.90;;;;;;;22.18;55.30;100857.69;5022497;28;20291;-59
2023/08/14 05:37:20;;;;;;;9.13;5.77;;;;;;;22.21;53.97;100857.53;5004877;28;20081;-58
2023/08/14 05:39:50;;;;;;;9.20;6.10;;;;;;;22.03;52.52;100853.22;5022832;28;20180;-57
2023/08/14 05:42:21;;;;;;;12.23;6.37;;;;;;;21.93;53.90;100859.03;5011965;28;20136;-58
2023/08/14 05:44:53;;;;;;;15.60;7.60;;;;;;;21.98;54.43;100851.66;5021572;28;20572;-57
2023/08/14 05:47:24;;;;;;;12.73;6.87;;;;;;;22.04;53.32;100841.63;5022538;28;20479;-59
2023/08/14 05:49:54;;;;;;;14.10;7.43;;;;;;;22.07;54.23;100846.78;5012509;28;20065;-59
2023/08/14 05:52:25;;;;;;;11.17;7.07;;;;;;;22.13;54.06;100854.41;5023018;28;20118;-58
2023/08/14 05:54:56;;;;;;;11.43;6.90;;;;;;;22.15;50.88;100852.53;5012556;28;20470;-60
2023/08/14 05:57:29;;;;;;;12.67;6.97;;;;;;;21.93;53.33;100848.38;5022335;28;20336;-57
2023/08/14 06:00:01;;;;;;;11.27;7.10;;;;;;;21.98;52.92;100853.47;5011856;28;20459;-58
2023/08/14 06:02:31;;;;;;;10.37;6.87;;;;;;;21.87;52.55;100848.72;5022063;28;20093;-58
2023/08/14 06:05:02;;;;;;;12.10;6.70;;;;;;;21.70;52.55;100852.28;5012521;28;20167;-58
2023/08/14 06:07:33;;;;;;;14.17;7.30;;;;;;;21.70;53.94;100856.75;5022024;28;20118;-58
2023/08/14 06:10:04;;;;;;;13.80;7.93;;;;;;;21.53;54.73;100794.69;5012473;28;20068;-59
2023/08/14 06:12:36;;;;;;;18.07;6.63;;;;;;;21.77;52.04;100852.84;5021744;28;20670;-58
2023/08/14 06:15:09;;;;;;;10.63;5.63;;;;;;;21.67;53.67;100857.78;5011665;28;20292;-57
2023/08/14 06:17:41;;;;;;;11.07;5.43;;;;;;;21.56;52.62;100844.19;5021700;28;20110;-58
2023/08/14 06:20:13;;;;;;;13.77;5.80;;;;;;;21.57;52.91;100850.34;5012073;28;20067;-58
2023/08/14 06:22:46;;;;;;;12.73;5.70;;;;;;;21.38;51.51;100840.66;5021193;28;20302;-58
2023/08/14 06:25:18;;;;;;;16.53;6.37;;;;;;;21.37;53.01;100844.28;5012008;28;20320;-60
2023/08/14 06:27:49;;;;;;;9.70;5.47;;;;;;;21.41;53.68;100840.53;5021756;28;20092;-58
2023/08/14 06:30:22;;;;;;;9.30;5.13;;;;;;;21.46;53.80;100843.81;5011066;28;20381;-58
2023/08/14 06:32:53;;;;;;;9.83;5.07;;;;;;;21.44;52.77;100845.72;5013847;28;20617;-57
2023/08/14 06:35:24;;;;;;;8.73;4.70;;;;;;;21.45;53.79;100846.56;5021792;28;20279;-59
2023/08/14 06:37:55;;;;;;;12.23;4.83;;;;;;;21.44;55.00;100840.41;5011795;28;20365;-59
2023/08/14 06:40:25;;;;;;;9.47;4.70;;;;;;;21.37;53.75;100849.59;5022382;28;20311;-59
2023/08/14 06:42:56;;;;;;;8.90;4.80;;;;;;;21.31;54.45;100836.59;5012057;28;20284;-59
2023/08/14 06:45:29;;;;;;;8.97;4.63;;;;;;;21.39;56.20;100845.09;5022250;28;20287;-58
2023/08/14 06:47:59;;;;;;;9.13;4.30;;;;;;;21.13;54.21;100846.38;5011246;28;20287;-59
2023/08/14 06:50:30;;;;;;;8.03;4.50;;;;;;;20.80;54.72;100843.66;5021776;28;20288;-59
2023/08/14 06:53:00;;;;;;;9.23;4.50;;;;;;;20.67;55.73;100843.41;5011032;28;20279;-60
2023/08/14 06:55:31;;;;;;;10.43;4.53;;;;;;;20.51;55.79;100839.72;5021319;28;20351;-58
2023/08/14 06:58:01;;;;;;;11.60;4.63;;;;;;;20.36;56.01;100843.97;5011987;28;20299;-60
2023/08/14 07:00:34;;;;;;;10.93;5.20;;;;;;;20.33;57.23;100849.44;5020689;28;20299;-59
2023/08/14 07:03:05;;;;;;;8.43;4.80;;;;;;;20.29;56.58;100842.53;5010783;28;20296;-59
2023/08/14 07:05:38;;;;;;;11.40;4.97;;;;;;;19.89;57.20;100802.81;5020719;28;20295;-59
2023/08/14 07:08:09;;;;;;;10.47;3.87;;;;;;;20.15;57.67;100846.72;5010031;28;20275;-59
2023/08/14 07:10:39;;;;;;;11.27;4.83;;;;;;;20.31;58.48;100836.22;5021469;28;20357;-58
2023/08/14 07:13:10;;;;;;;10.07;4.30;;;;;;;20.47;57.02;100839.03;5012311;28;20291;-59
2023/08/14 07:15:42;;;;;;;9.10;4.40;;;;;;;20.38;56.82;100842.13;5020921;28;20345;-60
2023/08/14 07:18:14;;;;;;;9.07;4.00;;;;;;;20.26;57.40;100841.75;5010460;28;20288;-59
2023/08/14 07:20:45;;;;;;;9.67;4.23;;;;;;;20.32;58.50;100834.44;5021187;28;20279;-58
2023/08/14 07:23:16;;;;;;;14.43;4.53;;;;;;;20.31;58.03;100844.19;5011687;28;20291;-58
2023/08/14 07:25:47;;;;;;;7.23;4.03;;;;;;;20.10;56.83;100800.97;5020309;28;20287;-58
2023/08/14 07:28:18;;;;;;;11.47;4.20;;;;;;;20.21;57.21;100835.81;5011527;28;20287;-60
2023/08/14 07:30:50;;;;;;;9.13;4.60;;;;;;;19.98;57.78;100822.78;5020720;28;20345;-60
2023/08/14 07:33:20;;;;;;;6.40;4.23;;;;;;;19.81;57.26;100828.84;5000433;28;20284;-60
2023/08/14 07:35:55;;;;;;;6.97;4.33;;;;;;;19.71;58.68;100831.06;5020711;28;20302;-60
2023/08/14 07:38:25;;;;;;;8.03;4.33;;;;;;;19.59;58.70;100826.28;5010845;28;20697;-59
2023/08/14 07:40:56;;;;;;;10.67;4.07;;;;;;;19.53;58.80;100821.25;5011228;28;20808;-59
2023/08/14 07:43:28;;;;;;;10.43;4.40;;;;;;;19.44;58.42;100826.97;5021941;28;20279;-59
2023/08/14 07:46:00;;;;;;;9.53;4.17;;;;;;;19.39;58.71;100820.09;5011448;28;20295;-60
2023/08/14 07:48:31;;;;;;;10.43;4.37;;;;;;;19.35;58.71;100823.78;5020180;28;20322;-59
2023/08/14 07:51:02;;;;;;;7.13;4.40;;;;;;;19.10;58.97;100796.66;5010774;28;20378;-60
2023/08/14 07:53:32;;;;;;;11.33;4.70;;;;;;;19.11;59.10;100804.50;5020913;28;20679;-59
2023/08/14 07:56:03;;;;;;;10.33;5.37;;;;;;;19.26;58.11;100808.28;5011300;28;20275;-59
2023/08/14 07:58:34;;;;;;;12.97;6.90;;;;;;;19.30;58.56;100804.59;5020327;28;20283;-59
2023/08/14 08:01:06;;;;;;;11.20;4.90;;;;;;;19.19;58.38;100806.84;5010837;28;20289;-60
2023/08/14 08:03:37;;;;;;;12.87;5.10;;;;;;;18.96;58.82;100811.34;5020250;28;20267;-58
2023/08/14 08:06:07;;;;;;;12.00;5.73;;;;;;;18.89;59.61;100809.88;5010201;28;20284;-59
2023/08/14 08:08:39;;;;;;;10.87;6.07;;;;;;;18.91;59.27;100813.31;5020716;28;20280;-59
2023/08/14 08:11:14;;;;;;;9.30;5.40;;;;;;;18.88;58.92;100805.50;5010288;28;20748;-59
2023/08/14 08:13:44;;;;;;;10.50;4.67;;;;;;;18.80;59.05;100818.22;5018382;28;20302;-59
2023/08/14 08:16:17;;;;;;;8.90;4.77;;;;;;;18.78;58.85;100814.75;5008775;28;20285;-59
2023/08/14 08:18:48;;;;;;;9.83;4.17;;;;;;;18.72;59.18;100797.31;5020658;28;20291;-58
2023/08/14 08:21:22;;;;;;;10.17;5.20;;;;;;;18.68;59.14;100805.44;5012907;28;20292;-61
2023/08/14 08:23:53;;;;;;;6.30;4.83;;;;;;;18.66;59.98;100808.16;5018048;28;20334;-61
2023/08/14 08:26:25;;;;;;;8.63;4.50;;;;;;;18.44;59.46;100791.44;5023303;28;20378;-59
2023/08/14 08:28:59;;;;;;;10.33;5.20;;;;;;;18.61;59.16;100820.72;5013253;28;20283;-60
2023/08/14 08:31:36;;;;;;;8.53;4.77;;;;;;;18.64;59.37;100814.44;5024722;28;20365;-60
2023/08/14 08:34:08;;;;;;;9.67;5.00;;;;;;;18.43;59.21;100774.69;4993706;28;20293;-59
2023/08/14 08:36:39;;;;;;;8.67;4.73;;;;;;;18.67;59.32;100814.31;5009774;28;20329;-59
2023/08/14 08:39:10;;;;;;;11.83;5.17;;;;;;;18.69;58.91;100812.47;5013735;28;20299;-58
2023/08/14 08:41:48;;;;;;;13.67;5.30;;;;;;;18.58;59.28;100796.19;5022836;28;20279;-59
2023/08/14 08:44:25;;;;;;;10.40;5.28;;;;;;;18.57;59.05;100797.97;5001766;28;20292;-59
2023/08/14 08:47:09;;;;;;;9.87;5.20;;;;;;;18.69;59.73;100807.16;4993684;28;20061;-59
2023/08/14 08:49:42;;;;;;;9.87;4.30;;;;;;;18.61;58.96;100802.19;5010413;28;20619;-59
2023/08/14 08:52:13;;;;;;;10.10;5.27;;;;;;;18.40;59.32;100763.41;5014186;28;20265;-58
2023/08/14 08:54:43;;;;;;;7.27;4.77;;;;;;;18.67;58.67;100819.59;5023348;28;20296;-59
2023/08/14 08:57:14;;;;;;;8.20;5.10;;;;;;;18.43;59.29;100774.69;5013247;28;20280;-60
2023/08/14 08:59:45;;;;;;;13.37;5.10;;;;;;;18.51;59.11;100785.81;5022941;28;20280;-60
2023/08/14 09:02:17;;;;;;;17.53;5.40;;;;;;;18.79;59.22;100824.41;5012877;28;20294;-59
2023/08/14 09:04:48;;;;;;;7.90;4.17;;;;;;;18.70;58.71;100824.78;5023732;28;20304;-59
2023/08/14 09:07:24;;;;;;;9.40;4.20;;;;;;;18.61;57.87;100830.44;5013808;28;20287;-60
2023/08/14 09:09:55;;;;;;;14.10;4.50;;;;;;;18.56;58.20;100832.41;5012913;28;20283;-59
2023/08/14 09:12:25;;;;;;;11.00;4.67;;;;;;;18.51;58.79;100836.09;5022295;28;20392;-59
2023/08/14 09:15:06;;;;;;;8.43;4.47;;;;;;;18.36;58.17;100831.44;5012573;28;20742;-59
2023/08/14 09:17:39;;;;;;;11.07;4.37;;;;;;;18.25;59.92;100838.94;5022365;28;20399;-58
2023/08/14 09:20:15;;;;;;;12.13;5.00;;;;;;;18.21;60.67;100832.03;5012380;28;20288;-58
2023/08/14 09:22:59;;;;;;;10.57;4.80;;;;;;;18.16;61.34;100849.88;5012802;28;20276;-59
2023/08/14 09:25:32;;;;;;;7.23;4.67;;;;;;;17.78;60.84;100833.66;5023246;28;20295;-58
2023/08/14 09:28:03;;;;;;;7.30;4.27;;;;;;;17.54;61.86;100846.81;4993214;28;20324;-59
2023/08/14 09:30:36;;;;;;;7.13;4.00;;;;;;;17.24;62.74;100846.97;5008210;28;20345;-58
2023/08/14 09:33:11;;;;;;;8.80;5.07;;;;;;;16.98;62.75;100852.31;5013119;28;20275;-58
2023/08/14 09:35:53;;;;;;;8.57;4.43;;;;;;;16.78;63.78;100861.75;5022949;28;20295;-58
2023/08/14 09:38:27;;;;;;;11.67;4.60;;;;;;;16.53;65.01;100866.06;4999957;28;20303;-58
2023/08/14 09:41:03;;;;;;;7.80;4.50;;;;;;;16.25;65.32;100848.44;4992680;28;20271;-59
2023/08/14 09:43:35;;;;;;;8.77;5.33;;;;;;;15.94;66.00;100825.63;5003753;28;20335;-58
2023/08/14 09:46:20;;;;;;;14.30;5.00;;;;;;;16.11;66.82;100869.09;4996491;28;20287;-58
2023/08/14 09:48:53;;;;;;;8.07;4.60;;;;;;;16.05;66.74;100869.25;5022912;28;20292;-59
2023/08/14 09:51:26;;;;;;;9.20;5.47;;;;;;;16.02;68.12;100866.69;5011992;28;20291;-59
2023/08/14 09:53:58;;;;;;;10.17;5.10;;;;;;;15.99;69.08;100874.72;5012177;28;20823;-58
2023/08/14 09:56:31;;;;;;;11.10;5.70;;;;;;;15.90;71.96;100887.25;5022609;28;20345;-59
2023/08/14 09:59:02;;;;;;;12.40;6.53;;;;;;;15.76;75.27;100886.78;5012287;28;20579;-59
2023/08/14 10:01:33;;;;;;;15.27;5.87;;;;;;;15.67;76.83;100897.53;5022560;28;20370;-59
2023/08/14 10:04:07;;;;;;;20.90;7.30;;;;;;;15.60;78.26;100903.84;5011690;28;20287;-59
2023/08/14 10:06:38;;;;;;;16.07;7.17;;;;;;;15.54;77.43;100915.44;5022412;28;20319;-58
2023/08/14 10:09:09;;;;;;;17.90;7.20;;;;;;;15.49;78.02;100910.28;5012117;28;20349;-59
2023/08/14 10:11:44;;;;;;;12.93;7.33;;;;;;;15.38;79.00;100908.84;5021940;28;20763;-59
2023/08/14 10:14:17;;;;;;;12.40;6.90;;;;;;;15.32;80.11;100915.13;5012373;28;20287;-59
2023/08/14 10:17:08;;;;;;;16.53;7.87;;;;;;;15.21;81.08;100917.19;5011706;28;20315;-59
2023/08/14 10:19:43;;;;;;;19.83;7.33;;;;;;;15.05;82.19;100904.41;5021921;28;20299;-58
2023/08/14 10:22:19;;;;;;;19.03;7.37;;;;;;;15.02;82.87;100916.75;5012223;28;20761;-59
2023/08/14 10:24:58;;;;;;;17.63;8.13;;;;;;;14.92;84.13;100916.09;5018278;28;20772;-59
2023/08/14 10:27:30;;;;;;;12.60;8.40;;;;;;;14.81;85.10;100916.38;5021703;28;20735;-59
2023/08/14 10:30:04;;;;;;;19.03;8.23;;;;;;;14.76;86.08;100914.75;5013681;28;20267;-60
2023/08/14 10:32:38;;;;;;;19.27;8.57;;;;;;;14.71;87.24;100916.63;5006537;28;20358;-60
2023/08/14 10:35:13;;;;;;;17.70;8.77;;;;;;;14.23;87.46;100826.50;4990325;28;20579;-59
2023/08/14 10:37:48;;;;;;;23.30;9.27;;;;;;;14.62;88.25;100905.38;5000613;28;20442;-59
2023/08/14 10:40:51;;;;;;;17.43;8.43;;;;;;;14.54;89.10;100904.72;5020262;28;20287;-59
2023/08/14 10:43:30;;;;;;;15.03;8.67;;;;;;;14.45;89.93;100911.03;4991160;28;20347;-59
2023/08/14 10:46:01;;;;;;;20.10;9.93;;;;;;;14.20;90.56;100879.16;5010898;28;20326;-59
2023/08/14 10:48:37;;;;;;;13.40;8.20;;;;;;;14.33;90.68;100911.28;5020288;28;20280;-59
2023/08/14 10:51:12;;;;;;;15.17;8.90;;;;;;;14.24;91.24;100912.31;5010768;28;20299;-59
2023/08/14 10:53:44;;;;;;;17.27;9.53;;;;;;;14.22;91.78;100924.63;5021365;28;20816;-59
2023/08/14 10:56:15;;;;;;;14.67;8.47;;;;;;;14.04;92.11;100904.00;5010872;28;20283;-59
2023/08/14 10:58:48;;;;;;;20.47;8.87;;;;;;;13.96;92.62;100900.66;5020416;28;20741;-59
2023/08/14 11:01:22;;;;;;;19.50;9.27;;;;;;;14.07;93.05;100921.47;5010663;28;20272;-59
2023/08/14 11:03:59;;;;;;;15.00;9.20;;;;;;;14.03;93.60;100939.06;5010620;28;20709;-59
2023/08/14 11:07:05;;;;;;;18.13;8.87;;;;;;;14.02;94.03;100932.06;5021042;28;20753;-60
2023/08/14 11:09:43;;;;;;;12.27;8.60;;;;;;;13.91;94.02;100928.81;5020014;28;20287;-59
2023/08/14 11:12:30;;;;;;;15.43;9.27;;;;;;;13.87;94.38;100927.97;5009861;28;20349;-59
2023/08/14 11:15:02;;;;;;;15.40;8.33;;;;;;;13.77;94.43;100932.53;5010563;28;20289;-59
2023/08/14 11:17:33;;;;;;;16.95;9.30;;;;;;;13.64;95.28;100941.53;5020533;28;20288;-59
2023/08/14 11:20:05;;;;;;;16.20;9.80;;;;;;;13.58;96.06;100939.91;5010948;28;20049;-59
2023/08/14 11:22:37;;;;;;;16.33;9.23;;;;;;;13.53;96.08;100938.25;5020959;28;20122;-60
2023/08/14 11:25:09;;;;;;;14.13;9.10;;;;;;;13.38;96.55;100934.16;5010948;28;20710;-60
2023/08/14 11:27:39;;;;;;;17.65;9.63;;;;;;;13.27;97.64;100936.94;5020368;28;20345;-59
2023/08/14 11:30:11;;;;;;;14.73;9.52;;;;;;;13.26;98.43;100922.06;5010238;28;20073;-59
2023/08/14 11:32:48;;;;;;;17.00;9.32;;;;;;;13.28;98.27;100933.44;5019535;28;20069;-59
2023/08/14 11:35:24;;;;;;;18.25;9.02;;;;;;;13.13;98.20;100917.91;5010257;28;20064;-59
2023/08/14 11:38:03;;;;;;;13.60;9.68;;;;;;;13.12;99.05;100926.66;5010468;28;20064;-59
2023/08/14 11:40:40;;;;;;;17.08;9.88;;;;;;;13.05;98.93;100930.28;5019826;28;20430;-59
2023/08/14 11:43:12;;;;;;;15.25;10.20;;;;;;;12.93;99.14;100916.47;5010427;28;20091;-59
2023/08/14 11:45:48;;;;;;;15.93;9.68;;;;;;;12.89;99.65;100930.50;5012580;28;20135;-59